Latest Coastal Weather Observations for Avalon

IDV60701

Issued at 7:02 am EDT Monday 20 January 2020 (issued every 10 minutes, with the page automatically refreshed every 10 minutes)

About coastal observations | Map of coastal stations | Coastal observations for VIC | Marine services | Other Formats
Station Details ID: 087113 Name: AVALON AIRPORT Lat: -38.03 Lon: 144.48 Height: 10.6 m
Data from the previous 72 hours. | See also: Recent months at Avalon
Date/Time
EDT
Wind Sea
Height
m
Swell Vis
km
Cloud Weather Temp
°C
Press
hPa
Rain since
9am
mm
Dir  Spd
kts
Gust
kts
Height
m
Period
s
Dir
20/07:00am SSW 6 8 - - - - 10 Cloudy - 18.8 1004.8 0.0
20/06:30am SSW 5 6 - - - - 10 Cloudy - 18.6 1004.7 0.0
20/06:00am SSW 3 4 - - - - 10 Cloudy - 18.2 1004.5 0.0
20/05:30am S 5 6 - - - - 10 Cloudy - 18.2 1004.1 0.0
20/05:00am S 5 5 - - - - 10 Partly cloudy - 17.8 1004.1 0.0
20/04:49am S 5 7 - - - - 10 Partly cloudy - 18.1 1004.1 0.0
20/04:30am S 6 7 - - - - 10 Cloudy - 18.4 1004.2 0.0
20/04:05am SSW 6 7 - - - - 10 Cloudy - 18.0 1004.3 0.0
20/04:00am SSW 5 7 - - - - 10 Partly cloudy - 17.9 1004.4 0.0
20/03:30am SSW 6 7 - - - - 10 Partly cloudy - 18.5 1004.8 0.0
20/03:18am SSW 8 9 - - - - 10 Partly cloudy - 18.2 1004.9 0.0
20/03:00am SW 6 7 - - - - 10 Partly cloudy - 17.9 1005.0 0.0
20/02:30am W 6 7 - - - - 10 Partly cloudy - 17.6 1005.1 0.0
20/02:00am SSE 6 7 - - - - 10 - - 18.4 1005.2 0.0
20/01:30am SE 8 11 - - - - 10 Partly cloudy - 18.9 1005.4 0.0
20/01:00am SSE 6 8 - - - - 10 - - 18.6 1005.4 0.0
20/12:30am SSE 8 9 - - - - 10 - - 19.1 1005.0 0.0
20/12:00am S 9 11 - - - - 10 Cloudy - 19.2 1004.9 0.0
 
Date/Time
EDT
Wind Sea
Height
m
Swell Vis
km
Cloud Weather Temp
°C
Press
hPa
Rain since
9am
mm
Dir  Spd
kts
Gust
kts
Height
m
Period
s
Dir
19/11:30pm SSE 8 11 - - - - 10 - - 19.4 1005.2 0.0
19/11:00pm SSW 9 11 - - - - 10 - - 19.7 1005.2 0.0
19/10:30pm S 7 8 - - - - 10 - - 19.4 1005.0 0.0
19/10:00pm SE 6 8 - - - - 10 - - 19.8 1004.9 0.0
19/09:30pm SE 5 7 - - - - 10 - - 20.4 1005.2 0.0
19/09:00pm ESE 8 10 - - - - 10 Cloudy - 21.4 1004.4 0.0
19/08:30pm E 11 15 - - - - 10 - - 22.2 1004.5 0.0
19/08:00pm SE 10 13 - - - - 10 - - 21.9 1004.1 0.0
19/07:30pm ESE 13 17 - - - - 10 - - 22.0 1004.1 0.0
19/07:00pm ESE 15 18 - - - - 10 - - 22.3 1003.6 0.0
19/06:30pm ESE 16 21 - - - - 10 - - 23.1 1003.0 0.0
19/06:00pm SSW 16 21 - - - - 10 - - 23.5 1003.0 0.0
19/05:30pm SSW 19 23 - - - - 10 - - 23.9 1002.8 0.0
19/05:00pm SSW 19 22 - - - - 10 - - 24.0 1003.3 0.0
19/04:30pm S 18 22 - - - - 10 - - 24.7 1003.6 0.0
19/04:00pm S 19 23 - - - - 10 - - 24.4 1002.9 0.0
19/03:30pm S 16 20 - - - - 10 - - 25.3 1003.0 0.0
19/03:00pm SSW 17 21 - - - - 10 - - 25.0 1003.5 0.0
19/02:30pm SSW 14 18 - - - - 10 - - 25.8 1003.8 0.0
19/02:00pm SE 13 19 - - - - 10 - - 24.9 1004.3 0.0
19/01:30pm SSE 11 15 - - - - 10 - - 25.8 1004.9 0.0
19/01:00pm SSE 8 11 - - - - 10 - - 25.0 1005.2 0.0
19/12:30pm S 6 10 - - - - 10 - - 24.8 1005.6 0.0
19/12:00pm SW 6 11 - - - - 10 - - 23.9 1006.0 0.0
19/11:30am WSW 5 8 - - - - 10 - - 22.6 1006.1 0.0
19/11:06am SW 4 6 - - - - 10 Partly cloudy - 22.7 1006.2 0.0
19/11:00am SW 5 7 - - - - 10 Partly cloudy - 21.5 1006.3 0.0
19/10:30am SSE 5 6 - - - - 10 Cloudy - 20.6 1006.5 0.0
19/10:00am SSW 5 7 - - - - 10 Cloudy - 19.7 1006.6 0.0
19/09:30am SW 2 5 - - - - 10 Cloudy - 19.2 1006.8 0.0
19/09:00am WNW 4 5 - - - - 8 Cloudy - 18.5 1006.9 0.0
19/08:48am WNW 4 5 - - - - 7 Cloudy - 18.1 1006.8 0.0
19/08:30am NW 4 5 - - - - 5 Cloudy - 17.5 1006.7 0.0
19/08:00am NW 5 7 - - - - 2 Partly cloudy - 16.5 1006.5 0.0
19/07:30am NW 4 5 - - - - 0.3 Partly cloudy - 16.0 1006.4 0.0
19/07:00am NW 5 7 - - - - 0.2 Cloudy - 15.4 1005.9 0.0
19/06:30am W 4 6 - - - - 0.2 Cloudy - 15.0 1005.9 0.0
19/06:11am W 5 8 - - - - 3 Partly cloudy - 14.8 1005.7 0.0
19/06:00am W 6 8 - - - - 6 Mostly clear - 14.9 1005.6 0.0
19/05:43am W 6 8 - - - - 6 - - 14.9 1005.4 0.0
19/05:30am W 6 8 - - - - 8 - - 15.4 1005.2 0.0
19/05:00am WSW 7 9 - - - - 8 - - 16.4 1005.1 0.0
19/04:30am SW 4 5 - - - - 10 Partly cloudy - 16.3 1005.4 0.0
19/04:00am ESE 5 6 - - - - 10 Partly cloudy - 16.8 1005.3 0.0
19/03:30am SSE 6 9 - - - - 10 Partly cloudy - 16.7 1005.2 0.0
19/03:00am S 7 9 - - - - 10 Partly cloudy - 16.6 1005.2 0.0
19/02:30am S 7 8 - - - - 10 Partly cloudy - 16.8 1005.3 0.0
19/02:00am S 8 8 - - - - 10 Partly cloudy - 16.6 1005.6 0.0
19/01:30am S 6 8 - - - - 10 Partly cloudy - 17.1 1005.9 0.0
19/01:00am SSE 6 8 - - - - 10 Partly cloudy - 17.4 1006.0 0.0
19/12:30am SE 10 13 - - - - 10 - - 18.8 1006.1 0.0
19/12:00am SE 9 13 - - - - 10 Partly cloudy - 18.8 1006.3 0.0
 
Date/Time
EDT
Wind Sea
Height
m
Swell Vis
km
Cloud Weather Temp
°C
Press
hPa
Rain since
9am
mm
Dir  Spd
kts
Gust
kts
Height
m
Period
s
Dir
18/11:30pm ESE 10 14 - - - - 10 - - 18.9 1006.4 0.0
18/11:00pm ESE 12 15 - - - - 10 - - 19.2 1006.5 0.0
18/10:30pm ESE 10 13 - - - - 10 - - 19.3 1006.6 0.0
18/10:00pm ESE 12 17 - - - - 10 - - 19.8 1006.7 0.0
18/09:30pm ESE 12 17 - - - - 10 - - 20.1 1006.5 0.0
18/09:00pm SE 10 15 - - - - 10 - - 20.2 1006.3 0.0
18/08:30pm ESE 13 17 - - - - 10 - - 20.8 1006.1 0.0
18/08:00pm ESE 14 22 - - - - 10 - - 21.6 1005.9 0.0
18/07:30pm ESE 16 21 - - - - 10 - - 22.5 1005.7 0.0
18/07:00pm ESE 18 22 - - - - 10 - - 23.2 1005.4 0.0
18/06:30pm ESE 15 20 - - - - 10 - - 24.3 1005.2 0.0
18/06:00pm ESE 15 20 - - - - 10 - - 24.7 1005.2 0.0
18/05:30pm ESE 15 19 - - - - 10 - - 25.6 1005.2 0.0
18/05:00pm SE 15 18 - - - - 10 - - 24.9 1005.5 0.0
18/04:30pm ESE 14 18 - - - - 10 - - 26.1 1005.6 0.0
18/04:00pm SE 13 16 - - - - 10 - - 25.9 1005.7 0.0
18/03:30pm ESE 13 16 - - - - 10 - - 26.1 1006.2 0.0
18/03:00pm ESE 11 15 - - - - 10 - - 25.1 1006.7 0.0
18/02:30pm ESE 12 16 - - - - 10 - - 24.2 1006.9 0.0
18/02:00pm ESE 11 14 - - - - 10 - - 24.4 1007.5 0.0
18/01:30pm ESE 12 15 - - - - 10 - - 23.6 1008.0 0.0
18/01:00pm E 10 13 - - - - 10 - - 23.5 1008.6 0.0
18/12:30pm E 11 15 - - - - 10 - - 22.0 1008.9 0.0
18/12:00pm ESE 11 16 - - - - 10 - - 22.0 1009.3 0.0
18/11:30am ESE 13 16 - - - - 10 - - 20.5 1009.5 0.0
18/11:00am ESE 11 15 - - - - 10 - - 20.3 1009.9 0.0
18/10:30am ESE 9 13 - - - - 10 - - 19.9 1010.4 0.0
18/10:00am ESE 8 11 - - - - 10 - - 19.5 1010.7 0.0
18/09:30am ESE 9 13 - - - - 10 - - 19.3 1010.7 0.0
18/09:00am ESE 9 12 - - - - 10 Partly cloudy - 18.2 1011.0 0.0
18/08:49am ESE 8 11 - - - - 10 Partly cloudy - 18.0 1010.9 0.0
18/08:30am ESE 9 11 - - - - 10 Partly cloudy - 18.1 1010.8 0.0
18/08:17am E 8 10 - - - - 10 Partly cloudy - 17.7 1010.7 0.0
18/08:00am ESE 8 10 - - - - 10 Partly cloudy - 17.7 1010.6 0.0
18/07:30am ESE 7 10 - - - - 10 Cloudy - 17.0 1010.4 0.0
18/07:00am E 4 6 - - - - 10 Cloudy - 16.5 1010.4 0.0
18/06:30am ESE 8 9 - - - - 10 Cloudy - 16.3 1010.2 0.0
18/06:00am E 8 11 - - - - 10 Mostly cloudy - 16.3 1009.9 0.0
18/05:30am ESE 12 15 - - - - 10 Cloudy - 16.5 1009.5 0.0
18/05:00am ESE 14 18 - - - - 10 Cloudy - 16.5 1009.4 0.0
18/04:30am ESE 15 19 - - - - 10 Cloudy - 16.5 1009.7 0.0
18/04:00am ESE 14 19 - - - - 10 Cloudy - 16.4 1009.8 0.0
18/03:30am ESE 14 20 - - - - 10 Cloudy - 16.5 1010.1 0.0
18/03:00am ESE 18 23 - - - - 10 Mostly cloudy - 16.6 1010.3 0.0
18/02:30am ESE 20 25 - - - - 10 Cloudy - 16.8 1010.7 0.0
18/02:02am ESE 16 26 - - - - 10 Cloudy - 16.9 1011.0 0.0
18/02:00am ESE 18 26 - - - - 10 Cloudy - 16.9 1011.0 0.0
18/01:54am ESE 20 26 - - - - 10 Cloudy - 17.0 1011.0 0.0
18/01:30am SE 14 17 - - - - 10 Cloudy - 16.8 1011.4 0.0
18/01:08am SE 17 27 - - - - 10 Cloudy - 16.9 1011.6 0.0
18/01:00am SE 16 25 - - - - 10 Cloudy - 17.0 1011.6 0.0
18/12:59am SE 15 25 - - - - 10 Cloudy - 17.0 1011.6 0.0
18/12:30am SE 13 18 - - - - 10 Cloudy - 17.0 1012.1 0.0
18/12:00am SE 17 22 - - - - 10 Cloudy - 17.2 1012.3 0.0
 
Date/Time
EDT
Wind Sea
Height
m
Swell Vis
km
Cloud Weather Temp
°C
Press
hPa
Rain since
9am
mm
Dir  Spd
kts
Gust
kts
Height
m
Period
s
Dir
17/11:33pm SE 17 27 - - - - 10 Cloudy - 17.3 1012.3 0.0
17/11:30pm SE 16 25 - - - - 10 Cloudy - 17.4 1012.4 0.0
17/11:00pm SE 16 23 - - - - 10 Cloudy - 17.5 1012.6 0.0
17/10:30pm ESE 20 28 - - - - 10 Cloudy - 17.7 1012.6 0.0
17/10:00pm SE 17 23 - - - - 10 Cloudy - 17.9 1012.5 0.0
17/09:30pm ESE 20 26 - - - - 10 Cloudy - 18.0 1012.3 0.0
17/09:00pm ESE 22 27 - - - - 10 Cloudy - 18.2 1012.3 0.0
17/08:30pm SE 15 19 - - - - 10 Cloudy - 18.5 1012.2 0.0
17/08:00pm ESE 20 26 - - - - 10 Cloudy - 18.9 1011.8 0.0
17/07:30pm ESE 19 26 - - - - 10 Partly cloudy - 19.0 1011.5 0.0
17/07:00pm SE 17 25 - - - - 10 Partly cloudy - 19.4 1011.4 0.0
17/06:30pm ESE 19 25 - - - - 10 Partly cloudy - 19.3 1011.3 0.0
17/06:00pm SE 14 19 - - - - 10 Cloudy - 19.8 1011.2 0.0
17/05:30pm SE 13 17 - - - - 10 Partly cloudy - 20.0 1011.4 0.0
17/05:00pm SE 14 19 - - - - 10 Partly cloudy - 19.7 1011.5 0.0
17/04:30pm SSE 15 19 - - - - 10 Cloudy - 19.9 1011.3 0.0
17/04:00pm SSE 16 21 - - - - 10 Cloudy - 19.9 1011.4 0.0
17/03:30pm SE 15 19 - - - - 10 Cloudy - 19.6 1011.5 0.0
17/03:00pm SSE 16 20 - - - - 10 Cloudy - 19.7 1011.8 0.0
17/02:30pm SE 15 22 - - - - 10 Cloudy - 19.6 1012.1 0.0
17/02:00pm SE 15 19 - - - - 10 Cloudy - 19.2 1012.3 0.0
17/01:30pm SE 15 20 - - - - 10 Cloudy - 18.9 1012.4 0.0
17/01:00pm SSE 15 20 - - - - 10 Partly cloudy - 18.4 1012.6 0.0
17/12:30pm SSE 14 18 - - - - 10 Cloudy - 18.1 1012.9 0.0
17/12:00pm SE 14 18 - - - - 10 Cloudy - 18.0 1013.1 0.0
17/11:30am SE 14 20 - - - - 10 Partly cloudy - 17.7 1013.3 0.0
17/11:00am SE 13 18 - - - - 10 Partly cloudy - 17.7 1013.5 0.0
17/10:30am SE 11 15 - - - - 10 Partly cloudy - 17.6 1013.5 0.0
17/10:00am ESE 11 14 - - - - 10 Partly cloudy - 17.5 1013.5 0.0
17/09:30am SE 10 14 - - - - 10 Cloudy - 18.2 1013.3 0.0
17/09:00am SE 8 11 - - - - 10 Mostly clear - 17.9 1013.3 0.2
17/08:30am S 11 13 - - - - 10 - - 17.4 1013.0 0.2
17/08:00am S 13 16 - - - - 10 Partly cloudy - 16.6 1012.9 0.2
17/07:54am S 13 16 - - - - 10 Partly cloudy - 16.3 1012.9 0.2
17/07:43am S 13 16 - - - - 10 Partly cloudy - 15.8 1013.0 0.2
17/07:41am S 13 16 - - - - 10 Partly cloudy - 15.8 1013.0 0.2
17/07:30am S 12 16 - - - - 10 Partly cloudy - 15.6 1013.0 0.2

Other formats

Comma delimited format used in spreadsheet applications
http://www.bom.gov.au/fwo/IDV60701/IDV60701.94854.axf

JavaScript Object Notation format (JSON) in row-major order
http://www.bom.gov.au/fwo/IDV60701/IDV60701.94854.json

Data quality

Most of these data are generated automatically and are frequently updated. Quality checks on data are not normally performed. It is possible for incorrect values to appear. Refer to information at About Latest Weather Observations and please check the disclaimer before using these data.